sensor_id;sensor_type;location;lat;lon;timestamp;P1;durP1;ratioP1;P2;durP2;ratioP2
46745;SDS011;32493;50.514;9.678;2023-07-20T00:01:26;6.53;;;3.45;;
46745;SDS011;32493;50.514;9.678;2023-07-20T00:03:32;5.40;;;3.03;;
46745;SDS011;32493;50.514;9.678;2023-07-20T00:05:37;5.47;;;2.80;;
46745;SDS011;32493;50.514;9.678;2023-07-20T00:07:43;6.07;;;2.78;;
46745;SDS011;32493;50.514;9.678;2023-07-20T00:09:49;7.15;;;3.50;;
46745;SDS011;32493;50.514;9.678;2023-07-20T00:11:55;6.88;;;2.80;;
46745;SDS011;32493;50.514;9.678;2023-07-20T00:14:01;9.77;;;3.03;;
46745;SDS011;32493;50.514;9.678;2023-07-20T00:16:07;6.43;;;3.00;;
46745;SDS011;32493;50.514;9.678;2023-07-20T00:18:13;6.28;;;3.53;;
46745;SDS011;32493;50.514;9.678;2023-07-20T00:20:25;6.00;;;3.25;;
46745;SDS011;32493;50.514;9.678;2023-07-20T00:22:31;6.95;;;3.40;;
46745;SDS011;32493;50.514;9.678;2023-07-20T00:24:37;6.68;;;3.22;;
46745;SDS011;32493;50.514;9.678;2023-07-20T00:26:40;7.03;;;3.38;;
46745;SDS011;32493;50.514;9.678;2023-07-20T00:28:46;7.50;;;3.28;;
46745;SDS011;32493;50.514;9.678;2023-07-20T00:32:59;10.45;;;4.15;;
46745;SDS011;32493;50.514;9.678;2023-07-20T00:35:05;9.25;;;3.80;;
46745;SDS011;32493;50.514;9.678;2023-07-20T00:37:15;6.68;;;3.92;;
46745;SDS011;32493;50.514;9.678;2023-07-20T00:39:21;7.10;;;2.90;;
46745;SDS011;32493;50.514;9.678;2023-07-20T00:41:26;5.70;;;3.25;;
46745;SDS011;32493;50.514;9.678;2023-07-20T00:43:33;6.63;;;3.20;;
46745;SDS011;32493;50.514;9.678;2023-07-20T00:45:39;6.88;;;3.13;;
46745;SDS011;32493;50.514;9.678;2023-07-20T00:47:46;4.80;;;3.60;;
46745;SDS011;32493;50.514;9.678;2023-07-20T00:49:52;6.15;;;3.42;;
46745;SDS011;32493;50.514;9.678;2023-07-20T00:51:58;6.43;;;3.90;;
46745;SDS011;32493;50.514;9.678;2023-07-20T00:54:07;6.07;;;3.78;;
46745;SDS011;32493;50.514;9.678;2023-07-20T00:56:12;6.82;;;3.40;;
46745;SDS011;32493;50.514;9.678;2023-07-20T00:58:20;6.15;;;3.38;;
46745;SDS011;32493;50.514;9.678;2023-07-20T01:00:28;7.72;;;3.60;;
46745;SDS011;32493;50.514;9.678;2023-07-20T01:02:33;8.95;;;3.45;;
46745;SDS011;32493;50.514;9.678;2023-07-20T01:04:38;5.97;;;3.28;;
46745;SDS011;32493;50.514;9.678;2023-07-20T01:06:45;7.22;;;3.53;;
46745;SDS011;32493;50.514;9.678;2023-07-20T01:09:02;5.45;;;3.47;;
46745;SDS011;32493;50.514;9.678;2023-07-20T01:11:22;7.25;;;3.47;;
46745;SDS011;32493;50.514;9.678;2023-07-20T01:13:38;6.53;;;3.40;;
46745;SDS011;32493;50.514;9.678;2023-07-20T01:15:48;4.88;;;3.25;;
46745;SDS011;32493;50.514;9.678;2023-07-20T01:17:55;6.43;;;3.30;;
46745;SDS011;32493;50.514;9.678;2023-07-20T01:22:09;11.55;;;3.75;;
46745;SDS011;32493;50.514;9.678;2023-07-20T01:24:35;6.25;;;4.07;;
46745;SDS011;32493;50.514;9.678;2023-07-20T01:29:55;10.07;;;3.75;;
46745;SDS011;32493;50.514;9.678;2023-07-20T01:32:24;5.47;;;3.75;;
46745;SDS011;32493;50.514;9.678;2023-07-20T01:34:31;7.32;;;3.53;;
46745;SDS011;32493;50.514;9.678;2023-07-20T01:36:38;9.00;;;3.55;;
46745;SDS011;32493;50.514;9.678;2023-07-20T01:38:45;9.75;;;4.15;;
46745;SDS011;32493;50.514;9.678;2023-07-20T01:40:51;13.82;;;3.95;;
46745;SDS011;32493;50.514;9.678;2023-07-20T01:42:58;5.38;;;3.75;;
46745;SDS011;32493;50.514;9.678;2023-07-20T01:45:04;8.05;;;3.45;;
46745;SDS011;32493;50.514;9.678;2023-07-20T01:47:08;9.75;;;4.13;;
46745;SDS011;32493;50.514;9.678;2023-07-20T01:49:16;9.40;;;4.28;;
46745;SDS011;32493;50.514;9.678;2023-07-20T01:51:22;6.47;;;3.92;;
46745;SDS011;32493;50.514;9.678;2023-07-20T01:53:28;7.45;;;3.63;;
46745;SDS011;32493;50.514;9.678;2023-07-20T01:55:34;7.75;;;4.07;;
46745;SDS011;32493;50.514;9.678;2023-07-20T01:57:40;7.00;;;3.85;;
46745;SDS011;32493;50.514;9.678;2023-07-20T01:59:47;8.02;;;3.80;;
46745;SDS011;32493;50.514;9.678;2023-07-20T02:01:52;9.75;;;3.50;;
46745;SDS011;32493;50.514;9.678;2023-07-20T02:03:58;9.90;;;3.75;;
46745;SDS011;32493;50.514;9.678;2023-07-20T02:06:06;9.35;;;3.70;;
46745;SDS011;32493;50.514;9.678;2023-07-20T02:08:12;5.57;;;3.45;;
46745;SDS011;32493;50.514;9.678;2023-07-20T02:10:18;6.85;;;3.15;;
46745;SDS011;32493;50.514;9.678;2023-07-20T02:12:23;7.95;;;4.45;;
46745;SDS011;32493;50.514;9.678;2023-07-20T02:14:29;8.05;;;4.53;;
46745;SDS011;32493;50.514;9.678;2023-07-20T02:16:35;7.07;;;3.85;;
46745;SDS011;32493;50.514;9.678;2023-07-20T02:18:38;7.63;;;4.03;;
46745;SDS011;32493;50.514;9.678;2023-07-20T02:20:43;8.10;;;3.80;;
46745;SDS011;32493;50.514;9.678;2023-07-20T02:22:51;6.40;;;4.07;;
46745;SDS011;32493;50.514;9.678;2023-07-20T02:24:58;11.20;;;4.88;;
46745;SDS011;32493;50.514;9.678;2023-07-20T02:27:04;9.40;;;4.80;;
46745;SDS011;32493;50.514;9.678;2023-07-20T02:29:10;10.90;;;5.38;;
46745;SDS011;32493;50.514;9.678;2023-07-20T02:31:15;14.57;;;5.45;;
46745;SDS011;32493;50.514;9.678;2023-07-20T02:33:22;14.25;;;5.55;;
46745;SDS011;32493;50.514;9.678;2023-07-20T02:35:28;10.63;;;5.22;;
46745;SDS011;32493;50.514;9.678;2023-07-20T02:37:34;10.70;;;5.10;;
46745;SDS011;32493;50.514;9.678;2023-07-20T02:39:42;8.18;;;4.88;;
46745;SDS011;32493;50.514;9.678;2023-07-20T02:41:47;10.38;;;4.45;;
46745;SDS011;32493;50.514;9.678;2023-07-20T02:43:53;10.45;;;5.25;;
46745;SDS011;32493;50.514;9.678;2023-07-20T02:45:59;9.90;;;4.28;;
46745;SDS011;32493;50.514;9.678;2023-07-20T02:48:07;10.52;;;4.50;;
46745;SDS011;32493;50.514;9.678;2023-07-20T02:50:15;12.15;;;5.18;;
46745;SDS011;32493;50.514;9.678;2023-07-20T02:52:20;10.55;;;5.05;;
46745;SDS011;32493;50.514;9.678;2023-07-20T02:54:26;9.43;;;5.03;;
46745;SDS011;32493;50.514;9.678;2023-07-20T02:56:35;8.18;;;5.00;;
46745;SDS011;32493;50.514;9.678;2023-07-20T02:58:41;9.32;;;5.03;;
46745;SDS011;32493;50.514;9.678;2023-07-20T03:00:48;8.45;;;5.10;;
46745;SDS011;32493;50.514;9.678;2023-07-20T03:02:54;6.63;;;4.88;;
46745;SDS011;32493;50.514;9.678;2023-07-20T03:05:00;6.93;;;4.82;;
46745;SDS011;32493;50.514;9.678;2023-07-20T03:07:08;9.90;;;5.10;;
46745;SDS011;32493;50.514;9.678;2023-07-20T03:09:14;11.05;;;5.10;;
46745;SDS011;32493;50.514;9.678;2023-07-20T03:11:17;9.77;;;5.03;;
46745;SDS011;32493;50.514;9.678;2023-07-20T03:13:27;8.95;;;5.10;;
46745;SDS011;32493;50.514;9.678;2023-07-20T03:15:34;12.48;;;5.43;;
46745;SDS011;32493;50.514;9.678;2023-07-20T03:17:41;8.10;;;4.93;;
46745;SDS011;32493;50.514;9.678;2023-07-20T03:19:48;8.10;;;4.50;;
46745;SDS011;32493;50.514;9.678;2023-07-20T03:21:54;7.35;;;4.25;;
46745;SDS011;32493;50.514;9.678;2023-07-20T03:23:57;8.55;;;4.70;;
46745;SDS011;32493;50.514;9.678;2023-07-20T03:26:03;6.30;;;4.45;;
46745;SDS011;32493;50.514;9.678;2023-07-20T03:28:08;8.07;;;4.97;;
46745;SDS011;32493;50.514;9.678;2023-07-20T03:30:17;8.18;;;4.22;;
46745;SDS011;32493;50.514;9.678;2023-07-20T03:32:23;8.05;;;4.70;;
46745;SDS011;32493;50.514;9.678;2023-07-20T03:34:28;9.25;;;4.25;;
46745;SDS011;32493;50.514;9.678;2023-07-20T03:36:34;10.18;;;4.53;;
46745;SDS011;32493;50.514;9.678;2023-07-20T03:38:40;8.32;;;5.05;;
46745;SDS011;32493;50.514;9.678;2023-07-20T03:40:54;10.00;;;5.03;;
46745;SDS011;32493;50.514;9.678;2023-07-20T03:43:02;11.32;;;5.32;;
46745;SDS011;32493;50.514;9.678;2023-07-20T03:45:11;9.65;;;5.05;;
46745;SDS011;32493;50.514;9.678;2023-07-20T03:47:19;9.65;;;5.18;;
46745;SDS011;32493;50.514;9.678;2023-07-20T03:49:26;9.02;;;5.53;;
46745;SDS011;32493;50.514;9.678;2023-07-20T03:51:32;10.15;;;4.60;;
46745;SDS011;32493;50.514;9.678;2023-07-20T03:53:37;6.53;;;4.50;;
46745;SDS011;32493;50.514;9.678;2023-07-20T03:55:44;8.38;;;4.72;;
46745;SDS011;32493;50.514;9.678;2023-07-20T03:57:50;9.77;;;4.78;;
46745;SDS011;32493;50.514;9.678;2023-07-20T03:59:57;9.98;;;5.13;;
46745;SDS011;32493;50.514;9.678;2023-07-20T04:02:13;8.68;;;4.68;;
46745;SDS011;32493;50.514;9.678;2023-07-20T04:04:21;8.50;;;4.57;;
46745;SDS011;32493;50.514;9.678;2023-07-20T04:06:27;10.05;;;4.75;;
46745;SDS011;32493;50.514;9.678;2023-07-20T04:08:33;8.50;;;4.68;;
46745;SDS011;32493;50.514;9.678;2023-07-20T04:10:43;11.13;;;4.95;;
46745;SDS011;32493;50.514;9.678;2023-07-20T04:12:49;10.00;;;4.60;;
46745;SDS011;32493;50.514;9.678;2023-07-20T04:14:55;7.55;;;4.60;;
46745;SDS011;32493;50.514;9.678;2023-07-20T04:17:03;9.93;;;5.05;;
46745;SDS011;32493;50.514;9.678;2023-07-20T04:19:08;9.52;;;4.18;;
46745;SDS011;32493;50.514;9.678;2023-07-20T04:21:17;11.05;;;4.40;;
46745;SDS011;32493;50.514;9.678;2023-07-20T04:23:23;9.75;;;4.72;;
46745;SDS011;32493;50.514;9.678;2023-07-20T04:25:29;10.68;;;4.10;;
46745;SDS011;32493;50.514;9.678;2023-07-20T04:27:41;7.18;;;4.68;;
46745;SDS011;32493;50.514;9.678;2023-07-20T04:29:47;10.55;;;4.38;;
46745;SDS011;32493;50.514;9.678;2023-07-20T04:31:55;9.68;;;4.22;;
46745;SDS011;32493;50.514;9.678;2023-07-20T04:34:00;9.17;;;4.80;;
46745;SDS011;32493;50.514;9.678;2023-07-20T04:36:08;7.15;;;4.25;;
46745;SDS011;32493;50.514;9.678;2023-07-20T04:38:19;10.90;;;4.90;;
46745;SDS011;32493;50.514;9.678;2023-07-20T04:40:48;7.38;;;4.40;;
46745;SDS011;32493;50.514;9.678;2023-07-20T04:42:54;9.30;;;4.60;;
46745;SDS011;32493;50.514;9.678;2023-07-20T04:44:57;8.85;;;4.32;;
46745;SDS011;32493;50.514;9.678;2023-07-20T04:47:04;7.87;;;4.03;;
46745;SDS011;32493;50.514;9.678;2023-07-20T04:49:12;7.88;;;4.40;;
46745;SDS011;32493;50.514;9.678;2023-07-20T04:51:19;8.10;;;3.90;;
46745;SDS011;32493;50.514;9.678;2023-07-20T04:53:29;9.27;;;4.60;;
46745;SDS011;32493;50.514;9.678;2023-07-20T04:55:35;10.50;;;4.35;;
46745;SDS011;32493;50.514;9.678;2023-07-20T04:57:44;9.77;;;4.30;;
46745;SDS011;32493;50.514;9.678;2023-07-20T04:59:52;11.38;;;3.95;;
46745;SDS011;32493;50.514;9.678;2023-07-20T05:01:57;9.68;;;4.03;;
46745;SDS011;32493;50.514;9.678;2023-07-20T05:04:03;7.72;;;4.70;;
46745;SDS011;32493;50.514;9.678;2023-07-20T05:06:09;10.40;;;4.38;;
46745;SDS011;32493;50.514;9.678;2023-07-20T05:08:17;8.00;;;4.38;;
46745;SDS011;32493;50.514;9.678;2023-07-20T05:10:32;7.25;;;4.22;;
46745;SDS011;32493;50.514;9.678;2023-07-20T05:12:36;10.43;;;4.75;;
46745;SDS011;32493;50.514;9.678;2023-07-20T05:14:41;10.18;;;4.25;;
46745;SDS011;32493;50.514;9.678;2023-07-20T05:16:47;7.70;;;4.43;;
46745;SDS011;32493;50.514;9.678;2023-07-20T05:18:53;7.03;;;4.53;;
46745;SDS011;32493;50.514;9.678;2023-07-20T05:20:59;15.50;;;4.53;;
46745;SDS011;32493;50.514;9.678;2023-07-20T05:23:09;9.02;;;4.03;;
46745;SDS011;32493;50.514;9.678;2023-07-20T05:25:15;7.05;;;4.32;;
46745;SDS011;32493;50.514;9.678;2023-07-20T05:27:35;7.20;;;4.50;;
46745;SDS011;32493;50.514;9.678;2023-07-20T05:29:44;8.77;;;4.72;;
46745;SDS011;32493;50.514;9.678;2023-07-20T05:31:50;9.50;;;4.55;;
46745;SDS011;32493;50.514;9.678;2023-07-20T05:33:53;8.40;;;4.78;;
46745;SDS011;32493;50.514;9.678;2023-07-20T05:35:59;8.48;;;4.72;;
46745;SDS011;32493;50.514;9.678;2023-07-20T05:38:18;11.60;;;5.15;;
46745;SDS011;32493;50.514;9.678;2023-07-20T05:40:25;10.45;;;5.20;;
46745;SDS011;32493;50.514;9.678;2023-07-20T05:42:31;9.73;;;4.90;;
46745;SDS011;32493;50.514;9.678;2023-07-20T05:44:36;7.68;;;4.55;;
46745;SDS011;32493;50.514;9.678;2023-07-20T05:46:42;11.52;;;5.18;;
46745;SDS011;32493;50.514;9.678;2023-07-20T05:48:58;18.20;;;4.97;;
46745;SDS011;32493;50.514;9.678;2023-07-20T05:51:04;9.73;;;4.20;;
46745;SDS011;32493;50.514;9.678;2023-07-20T05:53:12;9.85;;;4.57;;
46745;SDS011;32493;50.514;9.678;2023-07-20T05:55:29;11.32;;;4.60;;
46745;SDS011;32493;50.514;9.678;2023-07-20T05:57:38;8.65;;;4.85;;
46745;SDS011;32493;50.514;9.678;2023-07-20T05:59:45;11.35;;;4.63;;
46745;SDS011;32493;50.514;9.678;2023-07-20T06:01:50;8.40;;;4.50;;
46745;SDS011;32493;50.514;9.678;2023-07-20T06:03:56;7.28;;;4.05;;
46745;SDS011;32493;50.514;9.678;2023-07-20T06:06:02;9.73;;;4.20;;
46745;SDS011;32493;50.514;9.678;2023-07-20T06:08:11;8.48;;;3.80;;
46745;SDS011;32493;50.514;9.678;2023-07-20T06:10:21;6.57;;;3.92;;
46745;SDS011;32493;50.514;9.678;2023-07-20T06:12:26;8.35;;;4.20;;
46745;SDS011;32493;50.514;9.678;2023-07-20T06:14:34;8.02;;;4.07;;
46745;SDS011;32493;50.514;9.678;2023-07-20T06:16:37;6.03;;;3.72;;
46745;SDS011;32493;50.514;9.678;2023-07-20T06:18:44;9.32;;;4.43;;
46745;SDS011;32493;50.514;9.678;2023-07-20T06:20:52;8.30;;;4.32;;
46745;SDS011;32493;50.514;9.678;2023-07-20T06:22:57;7.25;;;3.55;;
46745;SDS011;32493;50.514;9.678;2023-07-20T06:25:03;10.80;;;3.90;;
46745;SDS011;32493;50.514;9.678;2023-07-20T06:27:11;7.53;;;2.97;;
46745;SDS011;32493;50.514;9.678;2023-07-20T06:29:18;7.63;;;3.72;;
46745;SDS011;32493;50.514;9.678;2023-07-20T06:31:23;7.82;;;3.70;;
46745;SDS011;32493;50.514;9.678;2023-07-20T06:33:29;9.45;;;3.78;;
46745;SDS011;32493;50.514;9.678;2023-07-20T06:35:36;6.13;;;2.97;;
46745;SDS011;32493;50.514;9.678;2023-07-20T06:37:42;5.32;;;2.70;;
46745;SDS011;32493;50.514;9.678;2023-07-20T06:39:49;7.45;;;2.83;;
46745;SDS011;32493;50.514;9.678;2023-07-20T06:41:58;5.43;;;2.40;;
46745;SDS011;32493;50.514;9.678;2023-07-20T06:44:03;3.65;;;2.20;;
46745;SDS011;32493;50.514;9.678;2023-07-20T06:46:09;4.32;;;2.17;;
46745;SDS011;32493;50.514;9.678;2023-07-20T06:48:18;4.97;;;2.53;;
46745;SDS011;32493;50.514;9.678;2023-07-20T06:50:26;5.97;;;2.40;;
46745;SDS011;32493;50.514;9.678;2023-07-20T06:52:33;4.60;;;2.88;;
46745;SDS011;32493;50.514;9.678;2023-07-20T06:54:41;6.85;;;2.72;;
46745;SDS011;32493;50.514;9.678;2023-07-20T06:57:07;5.75;;;2.50;;
46745;SDS011;32493;50.514;9.678;2023-07-20T06:59:15;3.83;;;2.78;;
46745;SDS011;32493;50.514;9.678;2023-07-20T07:01:21;6.00;;;2.85;;
46745;SDS011;32493;50.514;9.678;2023-07-20T07:03:29;4.82;;;2.90;;
46745;SDS011;32493;50.514;9.678;2023-07-20T07:05:35;5.10;;;2.65;;
46745;SDS011;32493;50.514;9.678;2023-07-20T07:07:42;4.65;;;2.40;;
46745;SDS011;32493;50.514;9.678;2023-07-20T07:09:48;3.60;;;2.20;;
46745;SDS011;32493;50.514;9.678;2023-07-20T07:11:53;6.10;;;2.78;;
46745;SDS011;32493;50.514;9.678;2023-07-20T07:13:59;5.45;;;2.97;;
46745;SDS011;32493;50.514;9.678;2023-07-20T07:16:05;6.65;;;2.67;;
46745;SDS011;32493;50.514;9.678;2023-07-20T07:18:11;5.97;;;2.88;;
46745;SDS011;32493;50.514;9.678;2023-07-20T07:20:19;5.35;;;2.95;;
46745;SDS011;32493;50.514;9.678;2023-07-20T07:22:25;7.15;;;3.17;;
46745;SDS011;32493;50.514;9.678;2023-07-20T07:24:31;5.28;;;2.75;;
46745;SDS011;32493;50.514;9.678;2023-07-20T07:26:37;4.38;;;3.70;;
46745;SDS011;32493;50.514;9.678;2023-07-20T07:28:44;7.32;;;4.47;;
46745;SDS011;32493;50.514;9.678;2023-07-20T07:30:52;5.65;;;4.07;;
46745;SDS011;32493;50.514;9.678;2023-07-20T07:35:05;7.05;;;4.50;;
46745;SDS011;32493;50.514;9.678;2023-07-20T07:37:15;5.93;;;4.50;;
46745;SDS011;32493;50.514;9.678;2023-07-20T07:39:21;6.63;;;3.83;;
46745;SDS011;32493;50.514;9.678;2023-07-20T07:41:36;7.68;;;4.47;;
46745;SDS011;32493;50.514;9.678;2023-07-20T07:43:41;8.07;;;4.50;;
46745;SDS011;32493;50.514;9.678;2023-07-20T07:45:47;5.35;;;4.15;;
46745;SDS011;32493;50.514;9.678;2023-07-20T07:47:50;5.18;;;4.07;;
46745;SDS011;32493;50.514;9.678;2023-07-20T07:49:56;8.13;;;4.20;;
46745;SDS011;32493;50.514;9.678;2023-07-20T07:52:06;6.47;;;3.88;;
46745;SDS011;32493;50.514;9.678;2023-07-20T07:54:14;6.97;;;4.78;;
46745;SDS011;32493;50.514;9.678;2023-07-20T07:56:20;8.10;;;3.78;;
46745;SDS011;32493;50.514;9.678;2023-07-20T07:58:30;6.30;;;3.78;;
46745;SDS011;32493;50.514;9.678;2023-07-20T08:00:36;5.82;;;4.00;;
46745;SDS011;32493;50.514;9.678;2023-07-20T08:02:44;11.82;;;4.38;;
46745;SDS011;32493;50.514;9.678;2023-07-20T08:04:50;6.90;;;4.40;;
46745;SDS011;32493;50.514;9.678;2023-07-20T08:06:56;6.15;;;3.80;;
46745;SDS011;32493;50.514;9.678;2023-07-20T08:09:03;4.65;;;3.90;;
46745;SDS011;32493;50.514;9.678;2023-07-20T08:11:14;7.75;;;3.83;;
46745;SDS011;32493;50.514;9.678;2023-07-20T08:13:20;7.55;;;4.10;;
46745;SDS011;32493;50.514;9.678;2023-07-20T08:15:26;4.68;;;4.05;;
46745;SDS011;32493;50.514;9.678;2023-07-20T08:17:33;4.80;;;3.78;;
46745;SDS011;32493;50.514;9.678;2023-07-20T08:21:45;6.00;;;3.80;;
46745;SDS011;32493;50.514;9.678;2023-07-20T08:23:52;5.18;;;3.88;;
46745;SDS011;32493;50.514;9.678;2023-07-20T08:25:57;6.35;;;3.65;;
46745;SDS011;32493;50.514;9.678;2023-07-20T08:28:06;8.70;;;3.90;;
46745;SDS011;32493;50.514;9.678;2023-07-20T08:30:12;4.97;;;4.05;;
46745;SDS011;32493;50.514;9.678;2023-07-20T08:32:18;4.82;;;3.67;;
46745;SDS011;32493;50.514;9.678;2023-07-20T08:34:24;5.95;;;4.20;;
46745;SDS011;32493;50.514;9.678;2023-07-20T08:36:32;5.10;;;3.83;;
46745;SDS011;32493;50.514;9.678;2023-07-20T08:38:39;6.32;;;4.03;;
46745;SDS011;32493;50.514;9.678;2023-07-20T08:40:47;5.72;;;3.42;;
46745;SDS011;32493;50.514;9.678;2023-07-20T08:42:52;5.88;;;3.85;;
46745;SDS011;32493;50.514;9.678;2023-07-20T08:45:03;9.52;;;3.70;;
46745;SDS011;32493;50.514;9.678;2023-07-20T08:47:13;5.82;;;3.80;;
46745;SDS011;32493;50.514;9.678;2023-07-20T08:49:25;5.60;;;3.97;;
46745;SDS011;32493;50.514;9.678;2023-07-20T08:51:31;6.85;;;4.00;;
46745;SDS011;32493;50.514;9.678;2023-07-20T08:53:38;5.57;;;4.05;;
46745;SDS011;32493;50.514;9.678;2023-07-20T08:55:44;6.32;;;4.25;;
46745;SDS011;32493;50.514;9.678;2023-07-20T08:57:50;5.45;;;4.30;;
46745;SDS011;32493;50.514;9.678;2023-07-20T08:59:59;5.95;;;4.10;;
46745;SDS011;32493;50.514;9.678;2023-07-20T09:02:15;6.32;;;4.35;;
46745;SDS011;32493;50.514;9.678;2023-07-20T09:04:22;4.88;;;3.97;;
46745;SDS011;32493;50.514;9.678;2023-07-20T09:06:28;4.50;;;3.03;;
46745;SDS011;32493;50.514;9.678;2023-07-20T09:08:37;6.43;;;3.67;;
46745;SDS011;32493;50.514;9.678;2023-07-20T09:10:45;7.95;;;4.07;;
46745;SDS011;32493;50.514;9.678;2023-07-20T09:12:51;4.63;;;2.67;;
46745;SDS011;32493;50.514;9.678;2023-07-20T09:14:57;2.90;;;1.95;;
46745;SDS011;32493;50.514;9.678;2023-07-20T09:17:07;4.70;;;2.47;;
46745;SDS011;32493;50.514;9.678;2023-07-20T09:19:19;5.05;;;2.90;;
46745;SDS011;32493;50.514;9.678;2023-07-20T09:21:27;5.03;;;2.75;;
46745;SDS011;32493;50.514;9.678;2023-07-20T09:23:35;4.13;;;2.30;;
46745;SDS011;32493;50.514;9.678;2023-07-20T09:25:41;4.03;;;2.20;;
46745;SDS011;32493;50.514;9.678;2023-07-20T09:27:47;3.45;;;2.08;;
46745;SDS011;32493;50.514;9.678;2023-07-20T09:29:53;3.80;;;2.42;;
46745;SDS011;32493;50.514;9.678;2023-07-20T09:32:00;3.92;;;2.47;;
46745;SDS011;32493;50.514;9.678;2023-07-20T09:34:27;4.35;;;2.50;;
46745;SDS011;32493;50.514;9.678;2023-07-20T09:36:36;5.28;;;2.67;;
46745;SDS011;32493;50.514;9.678;2023-07-20T09:38:45;3.25;;;2.70;;
46745;SDS011;32493;50.514;9.678;2023-07-20T09:40:54;2.30;;;1.77;;
46745;SDS011;32493;50.514;9.678;2023-07-20T09:43:02;5.53;;;2.85;;
46745;SDS011;32493;50.514;9.678;2023-07-20T09:45:15;3.75;;;3.00;;
46745;SDS011;32493;50.514;9.678;2023-07-20T09:47:21;2.80;;;2.60;;
46745;SDS011;32493;50.514;9.678;2023-07-20T09:49:30;2.57;;;2.23;;
46745;SDS011;32493;50.514;9.678;2023-07-20T09:51:39;4.13;;;2.72;;
46745;SDS011;32493;50.514;9.678;2023-07-20T09:53:45;3.17;;;2.53;;
46745;SDS011;32493;50.514;9.678;2023-07-20T09:55:52;5.28;;;3.00;;
46745;SDS011;32493;50.514;9.678;2023-07-20T09:57:58;7.07;;;2.30;;
46745;SDS011;32493;50.514;9.678;2023-07-20T10:00:05;4.38;;;2.60;;
46745;SDS011;32493;50.514;9.678;2023-07-20T10:02:20;4.50;;;1.88;;
46745;SDS011;32493;50.514;9.678;2023-07-20T10:04:29;5.53;;;1.83;;
46745;SDS011;32493;50.514;9.678;2023-07-20T10:06:39;6.65;;;2.30;;
46745;SDS011;32493;50.514;9.678;2023-07-20T10:08:52;4.55;;;2.92;;
46745;SDS011;32493;50.514;9.678;2023-07-20T10:11:00;8.63;;;3.70;;
46745;SDS011;32493;50.514;9.678;2023-07-20T10:13:07;5.40;;;3.20;;
46745;SDS011;32493;50.514;9.678;2023-07-20T10:15:24;3.67;;;3.03;;
46745;SDS011;32493;50.514;9.678;2023-07-20T10:17:33;5.43;;;3.08;;
46745;SDS011;32493;50.514;9.678;2023-07-20T10:19:47;4.32;;;3.28;;
46745;SDS011;32493;50.514;9.678;2023-07-20T10:24:10;6.03;;;3.65;;
46745;SDS011;32493;50.514;9.678;2023-07-20T10:26:17;6.82;;;3.25;;
46745;SDS011;32493;50.514;9.678;2023-07-20T10:28:25;3.80;;;2.22;;
46745;SDS011;32493;50.514;9.678;2023-07-20T10:30:34;4.20;;;2.90;;
46745;SDS011;32493;50.514;9.678;2023-07-20T10:32:41;4.95;;;3.15;;
46745;SDS011;32493;50.514;9.678;2023-07-20T10:34:53;5.00;;;2.60;;
46745;SDS011;32493;50.514;9.678;2023-07-20T10:37:01;5.18;;;2.55;;
46745;SDS011;32493;50.514;9.678;2023-07-20T10:39:06;7.05;;;2.70;;
46745;SDS011;32493;50.514;9.678;2023-07-20T10:41:33;4.35;;;2.70;;
46745;SDS011;32493;50.514;9.678;2023-07-20T10:43:41;4.20;;;2.92;;
46745;SDS011;32493;50.514;9.678;2023-07-20T10:45:48;3.42;;;2.10;;
46745;SDS011;32493;50.514;9.678;2023-07-20T10:47:55;3.00;;;1.80;;
46745;SDS011;32493;50.514;9.678;2023-07-20T10:50:01;4.20;;;3.00;;
46745;SDS011;32493;50.514;9.678;2023-07-20T10:52:08;4.40;;;2.67;;
46745;SDS011;32493;50.514;9.678;2023-07-20T10:56:37;3.88;;;2.53;;
46745;SDS011;32493;50.514;9.678;2023-07-20T10:58:43;3.60;;;2.42;;
46745;SDS011;32493;50.514;9.678;2023-07-20T11:00:56;3.40;;;2.35;;
46745;SDS011;32493;50.514;9.678;2023-07-20T11:03:04;3.88;;;2.17;;
46745;SDS011;32493;50.514;9.678;2023-07-20T11:07:42;3.38;;;2.00;;
46745;SDS011;32493;50.514;9.678;2023-07-20T11:09:48;3.40;;;2.50;;
46745;SDS011;32493;50.514;9.678;2023-07-20T11:12:08;3.83;;;2.50;;
46745;SDS011;32493;50.514;9.678;2023-07-20T11:14:22;2.83;;;2.50;;
46745;SDS011;32493;50.514;9.678;2023-07-20T11:16:40;5.07;;;2.40;;
46745;SDS011;32493;50.514;9.678;2023-07-20T11:18:49;2.72;;;2.38;;
46745;SDS011;32493;50.514;9.678;2023-07-20T11:20:55;4.18;;;2.30;;
46745;SDS011;32493;50.514;9.678;2023-07-20T11:23:01;4.68;;;2.10;;
46745;SDS011;32493;50.514;9.678;2023-07-20T11:25:09;4.28;;;2.70;;
46745;SDS011;32493;50.514;9.678;2023-07-20T11:27:16;4.43;;;3.03;;
46745;SDS011;32493;50.514;9.678;2023-07-20T11:29:24;4.72;;;2.95;;
46745;SDS011;32493;50.514;9.678;2023-07-20T11:31:35;3.53;;;2.63;;
46745;SDS011;32493;50.514;9.678;2023-07-20T11:33:41;4.27;;;2.43;;
46745;SDS011;32493;50.514;9.678;2023-07-20T11:35:48;3.30;;;2.30;;
46745;SDS011;32493;50.514;9.678;2023-07-20T11:37:57;3.78;;;2.15;;
46745;SDS011;32493;50.514;9.678;2023-07-20T11:40:04;4.53;;;2.20;;
46745;SDS011;32493;50.514;9.678;2023-07-20T11:44:21;5.03;;;2.17;;
46745;SDS011;32493;50.514;9.678;2023-07-20T11:46:32;3.47;;;1.95;;
46745;SDS011;32493;50.514;9.678;2023-07-20T11:48:39;4.75;;;2.45;;
46745;SDS011;32493;50.514;9.678;2023-07-20T11:52:50;5.07;;;1.95;;
46745;SDS011;32493;50.514;9.678;2023-07-20T11:54:59;2.88;;;1.98;;
46745;SDS011;32493;50.514;9.678;2023-07-20T11:57:07;5.95;;;2.65;;
46745;SDS011;32493;50.514;9.678;2023-07-20T11:59:21;4.93;;;2.50;;
46745;SDS011;32493;50.514;9.678;2023-07-20T12:01:27;4.55;;;2.20;;
46745;SDS011;32493;50.514;9.678;2023-07-20T12:03:37;3.30;;;2.00;;
46745;SDS011;32493;50.514;9.678;2023-07-20T12:05:40;2.70;;;1.92;;
46745;SDS011;32493;50.514;9.678;2023-07-20T12:08:02;2.88;;;2.40;;
46745;SDS011;32493;50.514;9.678;2023-07-20T12:10:11;4.82;;;2.35;;
46745;SDS011;32493;50.514;9.678;2023-07-20T12:12:18;3.58;;;2.00;;
46745;SDS011;32493;50.514;9.678;2023-07-20T12:14:25;3.67;;;2.25;;
46745;SDS011;32493;50.514;9.678;2023-07-20T12:16:31;3.28;;;1.90;;
46745;SDS011;32493;50.514;9.678;2023-07-20T12:18:37;3.58;;;2.20;;
46745;SDS011;32493;50.514;9.678;2023-07-20T12:20:46;3.35;;;2.30;;
46745;SDS011;32493;50.514;9.678;2023-07-20T12:22:52;4.78;;;2.42;;
46745;SDS011;32493;50.514;9.678;2023-07-20T12:25:00;2.83;;;1.90;;
46745;SDS011;32493;50.514;9.678;2023-07-20T12:27:16;5.50;;;2.45;;
46745;SDS011;32493;50.514;9.678;2023-07-20T12:29:24;3.00;;;2.30;;
46745;SDS011;32493;50.514;9.678;2023-07-20T12:31:30;4.93;;;2.55;;
46745;SDS011;32493;50.514;9.678;2023-07-20T12:33:38;3.35;;;2.40;;
46745;SDS011;32493;50.514;9.678;2023-07-20T12:35:44;3.28;;;2.13;;
46745;SDS011;32493;50.514;9.678;2023-07-20T12:37:49;3.97;;;2.42;;
46745;SDS011;32493;50.514;9.678;2023-07-20T12:39:55;3.75;;;2.58;;
46745;SDS011;32493;50.514;9.678;2023-07-20T12:42:01;3.53;;;2.30;;
46745;SDS011;32493;50.514;9.678;2023-07-20T12:44:09;4.93;;;2.70;;
46745;SDS011;32493;50.514;9.678;2023-07-20T12:46:15;3.60;;;2.45;;
46745;SDS011;32493;50.514;9.678;2023-07-20T12:48:21;4.13;;;2.85;;
46745;SDS011;32493;50.514;9.678;2023-07-20T12:50:31;5.00;;;3.03;;
46745;SDS011;32493;50.514;9.678;2023-07-20T12:52:35;3.72;;;2.78;;
46745;SDS011;32493;50.514;9.678;2023-07-20T12:54:42;2.88;;;2.58;;
46745;SDS011;32493;50.514;9.678;2023-07-20T12:56:48;3.78;;;2.40;;
46745;SDS011;32493;50.514;9.678;2023-07-20T12:58:56;4.45;;;3.22;;
46745;SDS011;32493;50.514;9.678;2023-07-20T13:01:07;4.18;;;2.85;;
46745;SDS011;32493;50.514;9.678;2023-07-20T13:03:10;3.90;;;2.90;;
46745;SDS011;32493;50.514;9.678;2023-07-20T13:05:31;4.15;;;2.53;;
46745;SDS011;32493;50.514;9.678;2023-07-20T13:07:41;4.05;;;2.60;;
46745;SDS011;32493;50.514;9.678;2023-07-20T13:09:50;4.78;;;2.63;;
46745;SDS011;32493;50.514;9.678;2023-07-20T13:11:55;5.20;;;2.55;;